Phelan, CA (92371)

11:34 PM PDT on September 30, 2016 (GMT -0700)
| | Change Station

Elev -9999 ft 0.00 °N, 0.00 °E | Updated

Clear
Clear
61 °F
Feels Like 61 °F
N
5
Wind Variable Wind from SW
Gusts mph

Today
High -- | Low -- °F
--% Chance of Precip.
Yesterday
High -- | Low -- °F
Precip. -- in
Pressure 29.95 in
Visibility 10.0 miles
Clouds Clear
Dew Point 40 °F
Humidity 46%
Rainfall --
Snow Depth Not available.
6:44 AM 6:34 PM
New Moon, 0% visible
METAR KGXA 010555Z AUTO 20006KT 10SM CLR 19/05 A3007 RMK AO2 SLP140 WND DATA ESTMD T01850050 10307 20213 52010 TSNO $
Pressure 29.95 in
Visibility 10.0 miles
Clouds Clear
Dew Point 40 °F
Humidity 46%
Rainfall --
Snow Depth Not available.
6:44 AM 6:34 PM
New Moon, 0% visible
METAR KGXA 010555Z AUTO 20006KT 10SM CLR 19/05 A3007 RMK AO2 SLP140 WND DATA ESTMD T01850050 10307 20213 52010 TSNO $

10-Day Weather Forecast

Almanac

Astronomy

Sep. 30, 2016 Rise Set
Actual Time
Civil Twilight
Nautical Twilight
Astronomical Twilight
Moon
Length of Visible Light
Length of Day
Tomorrow will be .
, % of the Moon is Illuminated

Today's Extremes

State Highs State Lows

Community

WunderPhotos

Upload Photos

1,942,898 photos uploaded!

WunderBlog® & News

Nearby

Air Quality

  Air Quality AQ Index Pollutant
Not available.

Snow Depth

Station Depth Elevation

Earthquake Activity

City Distance Mag. Time & Date
Minimum magnitude displayed is 2.5.

Coastal Water Temperatures

Place Temperature

Stations

Nearby Weather Stations

Station Location Temp. Windchill Dew Point Humidity Wind Precip. Elev Updated Type
                   

Watches & Warnings

There are currently no watches in effect.